createdAt,value
2019-05-25T00:01:24.178Z,1009.97
2019-05-25T00:02:24.173Z,1009.95
2019-05-25T00:04:17.156Z,1009.94
2019-05-25T00:05:17.216Z,1009.92
2019-05-25T00:07:10.229Z,1009.94
2019-05-25T00:08:10.269Z,1009.95
2019-05-25T00:10:03.257Z,1009.93
2019-05-25T00:11:03.325Z,1009.94
2019-05-25T00:12:56.319Z,1010.00
2019-05-25T00:13:56.363Z,1009.96
2019-05-25T00:15:49.339Z,1010.01
2019-05-25T00:16:49.405Z,1010.00
2019-05-25T00:18:42.410Z,1010.02
2019-05-25T00:19:42.449Z,1009.98
2019-05-25T00:21:35.462Z,1009.99
2019-05-25T00:22:35.496Z,1010.00
2019-05-25T00:24:28.490Z,1009.97
2019-05-25T00:25:28.552Z,1009.98
2019-05-25T00:27:21.563Z,1010.05
2019-05-25T00:28:21.613Z,1010.02
2019-05-25T00:30:14.599Z,1010.02
2019-05-25T00:31:14.655Z,1010.01
2019-05-25T00:33:07.679Z,1009.99
2019-05-25T00:34:07.715Z,1010.00
2019-05-25T00:36:00.726Z,1009.99
2019-05-25T00:37:00.769Z,1009.99
2019-05-25T00:38:53.749Z,1010.01
2019-05-25T00:39:53.808Z,1010.03
2019-05-25T00:41:46.823Z,1010.05
2019-05-25T00:42:46.852Z,1010.06
2019-05-25T00:44:40.350Z,1010.07
2019-05-25T00:45:40.407Z,1010.09
2019-05-25T00:47:33.414Z,1010.10
2019-05-25T00:48:33.482Z,1010.06
2019-05-25T00:50:26.436Z,1010.08
2019-05-25T00:51:26.499Z,1010.07
2019-05-25T00:53:19.499Z,1010.09
2019-05-25T00:54:27.437Z,1010.10
2019-05-25T00:56:12.523Z,1010.10
2019-05-25T00:57:12.589Z,1010.10
2019-05-25T00:59:05.590Z,1010.08
2019-05-25T01:00:05.638Z,1010.11
2019-05-25T01:01:58.622Z,1010.13
2019-05-25T01:02:58.694Z,1010.10
2019-05-25T01:04:51.685Z,1010.12
2019-05-25T01:05:51.727Z,1010.13
2019-05-25T01:07:44.748Z,1010.13
2019-05-25T01:08:44.793Z,1010.17
2019-05-25T01:10:37.796Z,1010.12
2019-05-25T01:11:37.839Z,1010.12
2019-05-25T01:13:30.850Z,1010.12
2019-05-25T01:14:30.908Z,1010.13
2019-05-25T01:16:23.884Z,1010.17
2019-05-25T01:17:23.925Z,1010.16
2019-05-25T01:19:16.927Z,1010.21
2019-05-25T01:20:16.978Z,1010.18
2019-05-25T01:22:09.958Z,1010.17
2019-05-25T01:23:10.018Z,1010.16
2019-05-25T01:25:03.018Z,1010.21
2019-05-25T01:26:03.060Z,1010.25
2019-05-25T01:27:56.064Z,1010.28
2019-05-25T01:28:56.104Z,1010.29
2019-05-25T01:30:49.088Z,1010.30
2019-05-25T01:31:49.151Z,1010.28
2019-05-25T01:33:42.150Z,1010.32
2019-05-25T01:34:42.193Z,1010.32
2019-05-25T01:36:35.209Z,1010.33
2019-05-25T01:37:35.249Z,1010.32
2019-05-25T01:39:28.233Z,1010.35
2019-05-25T01:40:28.306Z,1010.32
2019-05-25T01:42:21.298Z,1010.35
2019-05-25T01:43:21.335Z,1010.32
2019-05-25T01:45:14.830Z,1010.33
2019-05-25T01:46:14.890Z,1010.32
2019-05-25T01:48:07.894Z,1010.28
2019-05-25T01:49:07.931Z,1010.29
2019-05-25T01:51:00.934Z,1010.28
2019-05-25T01:52:00.976Z,1010.28
2019-05-25T01:53:53.983Z,1010.30
2019-05-25T01:54:59.889Z,1010.30
2019-05-25T01:56:47.015Z,1010.25
2019-05-25T01:57:47.075Z,1010.28
2019-05-25T01:59:40.079Z,1010.31
2019-05-25T02:00:40.118Z,1010.31
2019-05-25T02:02:33.118Z,1010.34
2019-05-25T02:03:33.169Z,1010.36
2019-05-25T02:05:26.170Z,1010.34
2019-05-25T02:06:26.210Z,1010.34
2019-05-25T02:08:19.198Z,1010.30
2019-05-25T02:09:19.254Z,1010.32
2019-05-25T02:11:12.257Z,1010.36
2019-05-25T02:12:12.297Z,1010.36
2019-05-25T02:14:05.279Z,1010.37
2019-05-25T02:15:05.359Z,1010.34
2019-05-25T02:16:58.347Z,1010.36
2019-05-25T02:17:58.389Z,1010.38
2019-05-25T02:19:51.477Z,1010.41
2019-05-25T02:20:51.432Z,1010.40
2019-05-25T02:22:44.426Z,1010.41
2019-05-25T02:23:44.494Z,1010.40
2019-05-25T02:25:37.494Z,1010.41
2019-05-25T02:26:37.592Z,1010.41
2019-05-25T02:28:30.525Z,1010.40
2019-05-25T02:29:30.582Z,1010.38
2019-05-25T02:31:23.592Z,1010.43
2019-05-25T02:32:23.632Z,1010.45
2019-05-25T02:34:16.618Z,1010.42
2019-05-25T02:35:16.681Z,1010.42
2019-05-25T02:37:09.681Z,1010.46
2019-05-25T02:38:09.722Z,1010.48
2019-05-25T02:40:02.765Z,1010.49
2019-05-25T02:41:02.806Z,1010.48
2019-05-25T02:42:55.786Z,1010.45
2019-05-25T02:43:55.844Z,1010.49
2019-05-25T02:45:48.851Z,1010.49
2019-05-25T02:46:48.890Z,1010.48
2019-05-25T02:48:41.879Z,1010.53
2019-05-25T02:49:41.940Z,1010.55
2019-05-25T02:51:34.967Z,1010.59
2019-05-25T02:52:34.983Z,1010.56
2019-05-25T02:54:27.982Z,1010.61
2019-05-25T02:55:34.359Z,1010.64
2019-05-25T02:57:21.014Z,1010.67
2019-05-25T02:58:21.072Z,1010.63
2019-05-25T03:00:14.069Z,1010.64
2019-05-25T03:01:14.150Z,1010.67
2019-05-25T03:03:07.106Z,1010.66
2019-05-25T03:04:07.165Z,1010.66
2019-05-25T03:06:00.209Z,1010.68
2019-05-25T03:07:00.198Z,1010.68
2019-05-25T03:08:53.201Z,1010.70
2019-05-25T03:09:53.242Z,1010.69
2019-05-25T03:11:46.226Z,1010.73
2019-05-25T03:12:46.287Z,1010.74
2019-05-25T03:14:39.290Z,1010.78
2019-05-25T03:15:39.330Z,1010.74
2019-05-25T03:17:32.338Z,1010.75
2019-05-25T03:18:32.379Z,1010.76
2019-05-25T03:20:25.359Z,1010.80
2019-05-25T03:21:25.422Z,1010.81
2019-05-25T03:23:18.425Z,1010.87
2019-05-25T03:24:18.466Z,1010.83
2019-05-25T03:26:11.449Z,1010.84
2019-05-25T03:27:11.513Z,1010.83
2019-05-25T03:29:04.511Z,1010.84
2019-05-25T03:30:04.552Z,1010.85
2019-05-25T03:31:57.535Z,1010.83
2019-05-25T03:32:57.594Z,1010.83
2019-05-25T03:34:50.598Z,1010.85
2019-05-25T03:35:50.643Z,1010.88
2019-05-25T03:37:43.645Z,1010.89
2019-05-25T03:38:43.689Z,1010.92
2019-05-25T03:40:36.672Z,1010.88
2019-05-25T03:41:36.732Z,1010.89
2019-05-25T03:43:29.761Z,1010.89
2019-05-25T03:44:29.813Z,1010.85
2019-05-25T03:46:22.836Z,1010.86
2019-05-25T03:47:22.973Z,1010.91
2019-05-25T03:49:15.862Z,1010.91
2019-05-25T03:50:15.900Z,1010.89
2019-05-25T03:52:08.903Z,1010.90
2019-05-25T03:53:08.942Z,1010.86
2019-05-25T03:55:01.928Z,1010.86
2019-05-25T03:56:05.682Z,1010.87
2019-05-25T03:57:55.000Z,1010.90
2019-05-25T03:58:55.085Z,1010.86
2019-05-25T04:00:48.016Z,1010.86
2019-05-25T04:01:48.074Z,1010.89
2019-05-25T04:03:41.084Z,1010.92
2019-05-25T04:04:41.151Z,1010.94
2019-05-25T04:06:34.119Z,1010.92
2019-05-25T04:07:34.256Z,1010.93
2019-05-25T04:09:27.164Z,1010.88
2019-05-25T04:10:27.266Z,1010.93
2019-05-25T04:12:20.192Z,1010.95
2019-05-25T04:13:20.252Z,1010.96
2019-05-25T04:15:13.265Z,1010.95
2019-05-25T04:16:13.300Z,1010.97
2019-05-25T04:18:06.308Z,1010.97
2019-05-25T04:19:06.346Z,1010.95
2019-05-25T04:20:59.330Z,1010.96
2019-05-25T04:21:59.391Z,1010.99
2019-05-25T04:23:52.394Z,1011.00
2019-05-25T04:24:52.431Z,1011.01
2019-05-25T04:26:45.434Z,1011.01
2019-05-25T04:27:45.474Z,1010.97
2019-05-25T04:29:38.455Z,1011.00
2019-05-25T04:30:38.517Z,1011.01
2019-05-25T04:32:31.517Z,1011.01
2019-05-25T04:33:31.558Z,1011.02
2019-05-25T04:35:24.568Z,1011.04
2019-05-25T04:36:24.611Z,1011.06
2019-05-25T04:38:17.593Z,1011.08
2019-05-25T04:39:17.659Z,1011.08
2019-05-25T04:41:10.652Z,1011.07
2019-05-25T04:42:10.703Z,1011.07
2019-05-25T04:44:03.701Z,1011.10
2019-05-25T04:45:03.772Z,1011.13
2019-05-25T04:46:56.791Z,1011.15
2019-05-25T04:47:56.845Z,1011.16
2019-05-25T04:49:49.785Z,1011.13
2019-05-25T04:50:49.854Z,1011.14
2019-05-25T04:52:42.875Z,1011.14
2019-05-25T04:53:42.898Z,1011.10
2019-05-25T04:55:35.878Z,1011.17
2019-05-25T04:56:39.593Z,1011.19
2019-05-25T04:58:28.955Z,1011.20
2019-05-25T04:59:28.975Z,1011.21
2019-05-25T05:01:22.751Z,1011.21
2019-05-25T05:02:22.022Z,1011.23
2019-05-25T05:04:15.075Z,1011.26
2019-05-25T05:05:15.077Z,1011.22
2019-05-25T05:07:08.084Z,1011.22
2019-05-25T05:08:08.134Z,1011.22
2019-05-25T05:10:03.060Z,1011.21
2019-05-25T05:11:01.158Z,1011.22
2019-05-25T05:12:54.159Z,1011.20
2019-05-25T05:13:54.198Z,1011.16
2019-05-25T05:15:47.181Z,1011.16
2019-05-25T05:16:47.245Z,1011.16
2019-05-25T05:18:40.250Z,1011.20
2019-05-25T05:19:40.290Z,1011.23
2019-05-25T05:21:33.281Z,1011.26
2019-05-25T05:22:33.340Z,1011.23
2019-05-25T05:24:26.341Z,1011.25
2019-05-25T05:25:26.384Z,1011.23
2019-05-25T05:27:19.370Z,1011.26
2019-05-25T05:28:19.428Z,1011.26
2019-05-25T05:30:12.438Z,1011.28
2019-05-25T05:31:23.270Z,1011.29
2019-05-25T05:33:05.476Z,1011.31
2019-05-25T05:34:05.528Z,1011.33
2019-05-25T05:35:58.534Z,1011.29
2019-05-25T05:36:58.574Z,1011.29
2019-05-25T05:38:51.580Z,1011.30
2019-05-25T05:39:51.622Z,1011.33
2019-05-25T05:41:44.610Z,1011.32
2019-05-25T05:42:44.667Z,1011.31
2019-05-25T05:44:38.193Z,1011.31
2019-05-25T05:45:38.223Z,1011.30
2019-05-25T05:47:31.209Z,1011.32
2019-05-25T05:48:31.265Z,1011.31
2019-05-25T05:50:24.267Z,1011.33
2019-05-25T05:51:24.319Z,1011.33
2019-05-25T05:53:17.337Z,1011.38
2019-05-25T05:54:17.354Z,1011.36
2019-05-25T05:56:10.340Z,1011.36
2019-05-25T05:57:12.578Z,1011.35
2019-05-25T05:59:03.411Z,1011.36
2019-05-25T06:00:03.490Z,1011.34
2019-05-25T06:01:56.422Z,1011.35
2019-05-25T06:02:56.486Z,1011.37
2019-05-25T06:04:49.487Z,1011.39
2019-05-25T06:05:49.708Z,1011.43
2019-05-25T06:07:42.519Z,1011.44
2019-05-25T06:08:42.570Z,1011.43
2019-05-25T06:10:35.608Z,1011.50
2019-05-25T06:11:35.653Z,1011.51
2019-05-25T06:13:28.639Z,1011.54
2019-05-25T06:14:28.693Z,1011.54
2019-05-25T06:16:21.697Z,1011.57
2019-05-25T06:17:21.744Z,1011.56
2019-05-25T06:19:14.743Z,1011.57
2019-05-25T06:20:14.786Z,1011.56
2019-05-25T06:22:07.774Z,1011.55
2019-05-25T06:23:12.148Z,1011.60
2019-05-25T06:25:00.837Z,1011.67
2019-05-25T06:26:00.881Z,1011.63
2019-05-25T06:27:53.864Z,1011.67
2019-05-25T06:28:53.922Z,1011.69
2019-05-25T06:30:46.930Z,1011.67
2019-05-25T06:31:46.975Z,1011.73
2019-05-25T06:33:39.959Z,1011.76
2019-05-25T06:34:40.025Z,1011.75
2019-05-25T06:36:33.025Z,1011.77
2019-05-25T06:37:33.068Z,1011.79
2019-05-25T06:39:26.068Z,1011.79
2019-05-25T06:40:26.110Z,1011.80
2019-05-25T06:42:19.112Z,1011.80
2019-05-25T06:43:19.156Z,1011.80
2019-05-25T06:45:12.650Z,1011.77
2019-05-25T06:46:12.713Z,1011.75
2019-05-25T06:48:05.721Z,1011.75
2019-05-25T06:49:05.783Z,1011.75
2019-05-25T06:50:58.762Z,1011.77
2019-05-25T06:51:58.853Z,1011.78
2019-05-25T06:53:51.891Z,1011.78
2019-05-25T06:54:51.906Z,1011.83
2019-05-25T06:56:44.877Z,1011.86
2019-05-25T06:57:45.073Z,1011.88
2019-05-25T06:59:37.942Z,1011.90
2019-05-25T07:00:38.052Z,1011.90
2019-05-25T07:02:31.041Z,1011.91
2019-05-25T07:03:31.066Z,1011.79
2019-05-25T07:05:24.234Z,1011.81
2019-05-25T07:06:24.139Z,1011.81
2019-05-25T07:08:17.125Z,1011.87
2019-05-25T07:09:17.243Z,1011.85
2019-05-25T07:11:10.213Z,1011.87
2019-05-25T07:12:10.260Z,1011.91
2019-05-25T07:14:03.258Z,1011.94
2019-05-25T07:15:03.571Z,1011.98
2019-05-25T07:17:05.370Z,1011.97
2019-05-25T07:17:57.527Z,1011.95
2019-05-25T07:19:49.351Z,1011.99
2019-05-25T07:20:49.392Z,1011.96
2019-05-25T07:22:42.380Z,1011.96
2019-05-25T07:23:42.443Z,1011.99
2019-05-25T07:25:35.450Z,1012.00
2019-05-25T07:26:35.512Z,1012.00
2019-05-25T07:28:28.483Z,1012.01
2019-05-25T07:29:28.549Z,1012.03
2019-05-25T07:31:21.554Z,1012.08
2019-05-25T07:32:21.613Z,1012.06
2019-05-25T07:34:14.592Z,1012.12
2019-05-25T07:35:14.657Z,1012.19
2019-05-25T07:37:07.657Z,1012.08
2019-05-25T07:38:07.722Z,1012.08
2019-05-25T07:40:00.727Z,1012.02
2019-05-25T07:41:00.765Z,1012.05
2019-05-25T07:42:53.764Z,1012.46
2019-05-25T07:43:53.821Z,1012.48
2019-05-25T07:45:46.841Z,1012.37
2019-05-25T07:46:46.877Z,1012.24
2019-05-25T07:48:39.902Z,1012.15
2019-05-25T07:49:39.935Z,1012.15
2019-05-25T07:51:32.945Z,1012.10
2019-05-25T07:52:33.017Z,1012.25
2019-05-25T07:54:25.996Z,1012.11
2019-05-25T07:55:26.065Z,1012.09
2019-05-25T07:57:19.083Z,1012.26
2019-05-25T07:58:19.133Z,1012.35
2019-05-25T08:00:12.144Z,1012.18
2019-05-25T08:01:12.195Z,1012.14
2019-05-25T08:03:05.191Z,1012.18
2019-05-25T08:04:05.256Z,1012.12
2019-05-25T08:05:58.274Z,1012.15
2019-05-25T08:06:58.322Z,1012.52
2019-05-25T08:08:51.346Z,1012.85
2019-05-25T08:09:51.397Z,1012.90
2019-05-25T08:11:44.410Z,1012.84
2019-05-25T08:12:44.460Z,1012.90
2019-05-25T08:14:37.466Z,1012.21
2019-05-25T08:15:37.535Z,1012.22
2019-05-25T08:17:31.076Z,1012.88
2019-05-25T08:18:31.118Z,1012.51
2019-05-25T08:20:24.155Z,1012.17
2019-05-25T08:21:24.200Z,1012.16
2019-05-25T08:23:17.234Z,1012.14
2019-05-25T08:24:17.278Z,1012.15
2019-05-25T08:26:10.289Z,1012.10
2019-05-25T08:27:10.362Z,1012.13
2019-05-25T08:29:03.400Z,1012.13
2019-05-25T08:30:03.441Z,1012.12
2019-05-25T08:31:56.443Z,1012.15
2019-05-25T08:32:56.515Z,1012.11
2019-05-25T08:34:49.541Z,1012.12
2019-05-25T08:35:49.583Z,1012.15
2019-05-25T08:37:42.616Z,1012.13
2019-05-25T08:38:42.658Z,1012.17
2019-05-25T08:40:35.661Z,1013.08
2019-05-25T08:41:35.726Z,1012.51
2019-05-25T08:43:28.758Z,1012.23
2019-05-25T08:44:28.799Z,1012.17
2019-05-25T08:46:21.802Z,1012.15
2019-05-25T08:47:21.867Z,1012.19
2019-05-25T08:49:14.881Z,1012.14
2019-05-25T08:50:14.931Z,1012.21
2019-05-25T08:52:07.931Z,1012.14
2019-05-25T08:53:07.998Z,1012.18
2019-05-25T08:55:01.014Z,1012.13
2019-05-25T08:56:01.066Z,1012.16
2019-05-25T08:57:54.060Z,1012.14
2019-05-25T08:58:55.625Z,1012.10
2019-05-25T09:00:47.151Z,1012.12
2019-05-25T09:01:47.203Z,1012.15
2019-05-25T09:03:40.208Z,1012.19
2019-05-25T09:04:40.302Z,1012.19
2019-05-25T09:06:33.276Z,1012.17
2019-05-25T09:07:33.326Z,1012.15
2019-05-25T09:09:26.323Z,1012.05
2019-05-25T09:10:26.390Z,1012.05
2019-05-25T09:12:19.403Z,1012.07
2019-05-25T09:13:19.458Z,1012.14
2019-05-25T09:15:12.468Z,1012.31
2019-05-25T09:16:12.513Z,1012.26
2019-05-25T09:18:06.192Z,1012.22
2019-05-25T09:19:06.098Z,1012.24
2019-05-25T09:20:59.094Z,1012.45
2019-05-25T09:22:03.267Z,1012.30
2019-05-25T09:23:52.186Z,1012.57
2019-05-25T09:24:52.230Z,1012.39
2019-05-25T09:26:45.310Z,1012.31
2019-05-25T09:27:45.309Z,1012.23
2019-05-25T09:29:38.323Z,1012.24
2019-05-25T09:30:38.380Z,1012.22
2019-05-25T09:32:31.420Z,1012.18
2019-05-25T09:33:31.446Z,1012.19
2019-05-25T09:35:24.466Z,1012.22
2019-05-25T09:36:24.516Z,1012.23
2019-05-25T09:38:17.533Z,1012.22
2019-05-25T09:39:17.581Z,1012.31
2019-05-25T09:41:10.641Z,1012.30
2019-05-25T09:42:10.654Z,1012.27
2019-05-25T09:44:03.654Z,1012.20
2019-05-25T09:45:03.723Z,1012.25
2019-05-25T09:46:56.785Z,1012.28
2019-05-25T09:47:56.833Z,1012.27
2019-05-25T09:49:49.837Z,1012.26
2019-05-25T09:50:49.903Z,1012.27
2019-05-25T09:52:42.921Z,1012.29
2019-05-25T09:53:42.969Z,1012.25
2019-05-25T09:55:35.965Z,1012.21
2019-05-25T09:56:36.029Z,1012.19
2019-05-25T09:58:29.047Z,1012.15
2019-05-25T09:59:29.095Z,1012.17
2019-05-25T10:01:22.112Z,1012.24
2019-05-25T10:02:22.156Z,1012.25
2019-05-25T10:04:15.168Z,1012.27
2019-05-25T10:05:15.217Z,1012.23
2019-05-25T10:07:08.236Z,1012.26
2019-05-25T10:08:08.284Z,1012.28
2019-05-25T10:10:01.317Z,1012.29
2019-05-25T10:11:01.347Z,1012.29
2019-05-25T10:12:54.355Z,1012.27
2019-05-25T10:13:54.405Z,1012.27
2019-05-25T10:15:47.398Z,1012.32
2019-05-25T10:16:47.463Z,1012.33
2019-05-25T10:18:40.476Z,1012.33
2019-05-25T10:19:40.528Z,1012.33
2019-05-25T10:21:33.524Z,1012.31
2019-05-25T10:22:33.587Z,1012.30
2019-05-25T10:24:26.600Z,1012.34
2019-05-25T10:25:26.648Z,1012.35
2019-05-25T10:27:19.669Z,1012.35
2019-05-25T10:28:19.716Z,1012.31
2019-05-25T10:30:12.725Z,1012.34
2019-05-25T10:31:12.778Z,1012.30
2019-05-25T10:33:05.774Z,1012.32
2019-05-25T10:34:05.842Z,1012.32
2019-05-25T10:35:58.860Z,1012.28
2019-05-25T10:36:58.898Z,1012.32
2019-05-25T10:38:51.929Z,1012.35
2019-05-25T10:39:51.970Z,1012.33
2019-05-25T10:41:44.984Z,1012.36
2019-05-25T10:42:45.031Z,1012.32
2019-05-25T10:44:38.075Z,1012.25
2019-05-25T10:45:38.103Z,1012.31
2019-05-25T10:47:31.127Z,1012.28
2019-05-25T10:48:31.182Z,1012.29
2019-05-25T10:50:24.187Z,1012.30
2019-05-25T10:51:24.229Z,1012.30
2019-05-25T10:53:17.280Z,1012.28
2019-05-25T10:54:17.310Z,1012.32
2019-05-25T10:56:10.449Z,1012.31
2019-05-25T10:57:13.257Z,1012.28
2019-05-25T10:59:03.617Z,1012.28
2019-05-25T11:00:03.474Z,1012.27
2019-05-25T11:01:56.489Z,1012.28
2019-05-25T11:02:56.528Z,1012.27
2019-05-25T11:04:49.543Z,1012.28
2019-05-25T11:05:49.589Z,1012.23
2019-05-25T11:07:42.605Z,1012.26
2019-05-25T11:08:42.650Z,1012.22
2019-05-25T11:10:35.642Z,1012.19
2019-05-25T11:11:35.714Z,1012.19
2019-05-25T11:13:28.715Z,1012.17
2019-05-25T11:14:28.771Z,1012.22
2019-05-25T11:16:21.807Z,1012.21
2019-05-25T11:17:21.833Z,1012.19
2019-05-25T11:19:14.850Z,1012.23
2019-05-25T11:20:14.894Z,1012.24
2019-05-25T11:22:07.909Z,1012.26
2019-05-25T11:23:07.968Z,1012.24
2019-05-25T11:25:00.976Z,1012.24
2019-05-25T11:26:01.021Z,1012.23
2019-05-25T11:27:54.038Z,1012.21
2019-05-25T11:28:54.081Z,1012.22
2019-05-25T11:30:47.096Z,1012.28
2019-05-25T11:31:55.967Z,1012.23
2019-05-25T11:33:40.191Z,1012.24
2019-05-25T11:34:40.207Z,1012.29
2019-05-25T11:36:33.204Z,1012.27
2019-05-25T11:37:33.264Z,1012.25
2019-05-25T11:39:26.274Z,1012.21
2019-05-25T11:40:26.326Z,1012.21
2019-05-25T11:42:19.325Z,1012.20
2019-05-25T11:43:19.390Z,1012.20
2019-05-25T11:45:12.401Z,1012.13
2019-05-25T11:46:12.454Z,1012.15
2019-05-25T11:48:05.453Z,1012.12
2019-05-25T11:49:21.423Z,1012.14
2019-05-25T11:50:58.520Z,1012.12
2019-05-25T11:51:58.573Z,1012.15
2019-05-25T11:53:51.585Z,1012.10
2019-05-25T11:54:51.633Z,1012.08
2019-05-25T11:56:44.627Z,1012.05
2019-05-25T11:57:44.691Z,1012.05
2019-05-25T11:59:37.700Z,1012.06
2019-05-25T12:00:37.756Z,1012.08
2019-05-25T12:02:30.749Z,1012.06
2019-05-25T12:03:30.813Z,1012.06
2019-05-25T12:05:23.830Z,1012.10
2019-05-25T12:06:23.877Z,1012.06
2019-05-25T12:08:16.886Z,1012.08
2019-05-25T12:09:16.935Z,1012.04
2019-05-25T12:11:09.930Z,1012.01
2019-05-25T12:12:09.996Z,1011.99
2019-05-25T12:14:03.008Z,1011.98
2019-05-25T12:15:03.058Z,1012.00
2019-05-25T12:16:56.119Z,1011.93
2019-05-25T12:17:56.139Z,1011.96
2019-05-25T12:19:49.140Z,1011.92
2019-05-25T12:20:49.190Z,1011.87
2019-05-25T12:22:42.206Z,1011.81
2019-05-25T12:23:42.245Z,1011.81
2019-05-25T12:25:35.263Z,1011.79
2019-05-25T12:26:35.313Z,1011.79
2019-05-25T12:28:28.306Z,1011.81
2019-05-25T12:29:28.373Z,1011.81
2019-05-25T12:31:21.389Z,1011.75
2019-05-25T12:32:21.434Z,1011.75
2019-05-25T12:34:14.447Z,1011.73
2019-05-25T12:35:14.496Z,1011.75
2019-05-25T12:37:07.505Z,1011.78
2019-05-25T12:38:07.555Z,1011.82
2019-05-25T12:40:00.573Z,1011.78
2019-05-25T12:41:00.620Z,1011.78
2019-05-25T12:42:53.619Z,1011.77
2019-05-25T12:43:53.671Z,1011.68
2019-05-25T12:45:46.690Z,1011.67
2019-05-25T12:46:46.735Z,1011.61
2019-05-25T12:48:39.734Z,1011.59
2019-05-25T12:49:50.227Z,1011.61
2019-05-25T12:51:32.812Z,1011.62
2019-05-25T12:52:32.852Z,1011.59
2019-05-25T12:54:25.852Z,1011.61
2019-05-25T12:55:25.911Z,1011.58
2019-05-25T12:57:18.923Z,1011.60
2019-05-25T12:58:18.976Z,1011.56
2019-05-25T13:00:15.987Z,1011.61
2019-05-25T13:01:12.024Z,1011.57
2019-05-25T13:03:05.035Z,1011.58
2019-05-25T13:04:05.081Z,1011.61
2019-05-25T13:05:58.071Z,1011.65
2019-05-25T13:06:58.140Z,1011.64
2019-05-25T13:08:51.175Z,1011.59
2019-05-25T13:09:51.195Z,1011.63
2019-05-25T13:11:44.200Z,1011.61
2019-05-25T13:12:44.267Z,1011.69
2019-05-25T13:14:37.275Z,1011.68
2019-05-25T13:15:37.319Z,1011.72
2019-05-25T13:17:30.822Z,1011.66
2019-05-25T13:18:30.883Z,1011.66
2019-05-25T13:20:23.893Z,1011.66
2019-05-25T13:21:23.943Z,1011.67
2019-05-25T13:23:17.168Z,1011.65
2019-05-25T13:24:16.998Z,1011.64
2019-05-25T13:26:10.012Z,1011.65
2019-05-25T13:27:10.056Z,1011.64
2019-05-25T13:29:03.049Z,1011.62
2019-05-25T13:30:03.613Z,1011.62
2019-05-25T13:31:56.121Z,1011.64
2019-05-25T13:32:56.179Z,1011.60
2019-05-25T13:34:49.182Z,1011.61
2019-05-25T13:35:49.230Z,1011.62
2019-05-25T13:37:42.251Z,1011.66
2019-05-25T13:38:42.293Z,1011.60
2019-05-25T13:40:35.287Z,1011.59
2019-05-25T13:41:35.350Z,1011.61
2019-05-25T13:43:28.365Z,1011.58
2019-05-25T13:44:28.409Z,1011.59
2019-05-25T13:46:21.402Z,1011.63
2019-05-25T13:47:21.471Z,1011.63
2019-05-25T13:49:14.482Z,1011.60
2019-05-25T13:50:14.529Z,1011.63
2019-05-25T13:52:07.525Z,1011.62
2019-05-25T13:53:07.592Z,1011.62
2019-05-25T13:55:00.598Z,1011.58
2019-05-25T13:56:00.647Z,1011.59
2019-05-25T13:57:53.660Z,1011.51
2019-05-25T13:58:53.715Z,1011.53
2019-05-25T14:00:46.701Z,1011.53
2019-05-25T14:01:46.767Z,1011.52
2019-05-25T14:03:39.811Z,1011.46
2019-05-25T14:04:39.856Z,1011.49
2019-05-25T14:06:32.866Z,1011.48
2019-05-25T14:07:32.937Z,1011.46
2019-05-25T14:09:25.933Z,1011.43
2019-05-25T14:10:25.977Z,1011.44
2019-05-25T14:12:18.980Z,1011.45
2019-05-25T14:13:19.037Z,1011.43
2019-05-25T14:15:12.226Z,1011.43
2019-05-25T14:16:12.101Z,1011.42
2019-05-25T14:18:05.642Z,1011.45
2019-05-25T14:19:05.668Z,1011.45
2019-05-25T14:20:58.664Z,1011.40
2019-05-25T14:21:58.726Z,1011.41
2019-05-25T14:23:51.738Z,1011.44
2019-05-25T14:24:51.782Z,1011.44
2019-05-25T14:26:44.779Z,1011.45
2019-05-25T14:27:44.846Z,1011.43
2019-05-25T14:29:37.874Z,1011.45
2019-05-25T14:30:37.917Z,1011.43
2019-05-25T14:32:30.945Z,1011.41
2019-05-25T14:33:30.985Z,1011.44
2019-05-25T14:35:23.979Z,1011.42
2019-05-25T14:36:24.039Z,1011.41
2019-05-25T14:38:17.061Z,1011.39
2019-05-25T14:39:17.103Z,1011.43
2019-05-25T14:41:10.174Z,1011.37
2019-05-25T14:42:10.161Z,1011.35
2019-05-25T14:44:03.171Z,1011.35
2019-05-25T14:45:03.222Z,1011.32
2019-05-25T14:46:56.212Z,1011.28
2019-05-25T14:47:56.276Z,1011.24
2019-05-25T14:49:49.288Z,1011.26
2019-05-25T14:50:49.334Z,1011.26
2019-05-25T14:52:43.378Z,1011.20
2019-05-25T14:53:42.396Z,1011.21
2019-05-25T14:55:35.385Z,1011.19
2019-05-25T14:56:35.457Z,1011.20
2019-05-25T14:58:28.461Z,1011.24
2019-05-25T14:59:28.506Z,1011.20
2019-05-25T15:01:21.500Z,1011.24
2019-05-25T15:02:21.563Z,1011.26
2019-05-25T15:04:14.573Z,1011.25
2019-05-25T15:05:14.619Z,1011.26
2019-05-25T15:07:07.628Z,1011.27
2019-05-25T15:08:07.686Z,1011.24
2019-05-25T15:10:01.206Z,1011.24
2019-05-25T15:11:00.744Z,1011.24
2019-05-25T15:12:53.756Z,1011.19
2019-05-25T15:13:53.803Z,1011.23
2019-05-25T15:15:46.794Z,1011.18
2019-05-25T15:16:46.919Z,1011.20
2019-05-25T15:18:40.382Z,1011.22
2019-05-25T15:19:40.425Z,1011.24
2019-05-25T15:21:33.500Z,1011.21
2019-05-25T15:22:33.481Z,1011.17
2019-05-25T15:24:26.491Z,1011.12
2019-05-25T15:25:26.533Z,1011.08
2019-05-25T15:27:19.545Z,1011.10
2019-05-25T15:28:19.596Z,1011.07
2019-05-25T15:30:12.585Z,1011.08
2019-05-25T15:31:12.654Z,1011.09
2019-05-25T15:33:05.658Z,1011.09
2019-05-25T15:34:05.712Z,1011.10
2019-05-25T15:35:58.715Z,1011.05
2019-05-25T15:36:58.769Z,1011.07
2019-05-25T15:38:51.790Z,1011.02
2019-05-25T15:39:51.826Z,1011.06
2019-05-25T15:41:44.823Z,1011.07
2019-05-25T15:42:44.881Z,1011.04
2019-05-25T15:44:37.893Z,1010.99
2019-05-25T15:45:37.942Z,1011.00
2019-05-25T15:47:30.955Z,1011.03
2019-05-25T15:48:30.997Z,1010.99
2019-05-25T15:50:24.014Z,1010.96
2019-05-25T15:51:24.055Z,1010.97
2019-05-25T15:53:17.040Z,1010.94
2019-05-25T15:54:17.106Z,1010.94
2019-05-25T15:56:10.200Z,1010.90
2019-05-25T15:57:10.167Z,1010.90
2019-05-25T15:59:03.177Z,1010.94
2019-05-25T16:00:03.225Z,1010.88
2019-05-25T16:01:56.240Z,1010.87
2019-05-25T16:02:56.272Z,1010.86
2019-05-25T16:04:49.272Z,1010.82
2019-05-25T16:05:49.340Z,1010.79
2019-05-25T16:07:42.353Z,1010.79
2019-05-25T16:08:42.388Z,1010.79
2019-05-25T16:10:35.371Z,1010.77
2019-05-25T16:11:35.454Z,1010.80
2019-05-25T16:13:28.450Z,1010.76
2019-05-25T16:14:28.498Z,1010.77
2019-05-25T16:16:29.758Z,1010.77
2019-05-25T16:17:21.550Z,1010.74
2019-05-25T16:19:14.557Z,1010.76
2019-05-25T16:20:14.602Z,1010.78
2019-05-25T16:22:07.593Z,1010.76
2019-05-25T16:23:07.660Z,1010.80
2019-05-25T16:25:00.675Z,1010.77
2019-05-25T16:26:00.729Z,1010.79
2019-05-25T16:27:53.713Z,1010.80
2019-05-25T16:28:53.771Z,1010.77
2019-05-25T16:30:46.783Z,1010.79
2019-05-25T16:31:46.833Z,1010.80
2019-05-25T16:33:39.860Z,1010.76
2019-05-25T16:34:39.924Z,1010.81
2019-05-25T16:36:32.950Z,1010.82
2019-05-25T16:37:33.020Z,1010.84
2019-05-25T16:39:25.987Z,1010.81
2019-05-25T16:40:26.039Z,1010.75
2019-05-25T16:42:19.050Z,1010.77
2019-05-25T16:43:19.093Z,1010.73
2019-05-25T16:45:12.089Z,1010.73
2019-05-25T16:46:12.148Z,1010.74
2019-05-25T16:48:05.163Z,1010.76
2019-05-25T16:49:05.208Z,1010.74
2019-05-25T16:50:58.221Z,1010.70
2019-05-25T16:51:58.277Z,1010.73
2019-05-25T16:53:51.262Z,1010.75
2019-05-25T16:54:51.324Z,1010.75
2019-05-25T16:56:44.339Z,1010.73
2019-05-25T16:57:44.373Z,1010.72
2019-05-25T16:59:37.372Z,1010.69
2019-05-25T17:00:37.427Z,1010.69
2019-05-25T17:02:30.439Z,1010.71
2019-05-25T17:03:30.481Z,1010.73
2019-05-25T17:05:23.492Z,1010.71
2019-05-25T17:06:23.535Z,1010.66
2019-05-25T17:08:16.529Z,1010.65
2019-05-25T17:09:16.595Z,1010.69
2019-05-25T17:11:10.181Z,1010.65
2019-05-25T17:12:10.154Z,1010.66
2019-05-25T17:14:03.147Z,1010.67
2019-05-25T17:15:03.240Z,1010.68
2019-05-25T17:16:56.237Z,1010.65
2019-05-25T17:17:56.568Z,1010.67
2019-05-25T17:19:49.255Z,1010.67
2019-05-25T17:20:49.326Z,1010.67
2019-05-25T17:22:42.841Z,1010.67
2019-05-25T17:23:42.882Z,1010.68
2019-05-25T17:25:35.897Z,1010.70
2019-05-25T17:26:35.944Z,1010.69